createdAt,value
2017-10-23T00:01:38.228Z,3.50
2017-10-23T00:04:06.818Z,4.30
2017-10-23T00:06:35.870Z,2.93
2017-10-23T00:09:04.150Z,5.53
2017-10-23T00:11:33.246Z,3.77
2017-10-23T00:14:02.866Z,3.60
2017-10-23T00:16:31.418Z,4.50
2017-10-23T00:18:59.734Z,3.90
2017-10-23T00:21:28.036Z,4.30
2017-10-23T00:23:56.315Z,3.53
2017-10-23T00:26:24.653Z,3.57
2017-10-23T00:28:54.062Z,3.80
2017-10-23T00:31:22.339Z,2.87
2017-10-23T00:33:50.664Z,4.17
2017-10-23T00:36:20.299Z,3.00
2017-10-23T00:38:48.838Z,3.93
2017-10-23T00:41:17.174Z,3.93
2017-10-23T00:43:46.270Z,4.63
2017-10-23T00:46:15.683Z,3.83
2017-10-23T00:48:44.790Z,4.43
2017-10-23T00:51:13.071Z,3.80
2017-10-23T00:53:42.114Z,4.10
2017-10-23T00:56:11.207Z,3.40
2017-10-23T00:58:40.843Z,3.50
2017-10-23T01:01:09.390Z,3.70
2017-10-23T01:03:37.711Z,3.20
2017-10-23T01:06:05.989Z,2.73
2017-10-23T01:08:35.774Z,3.90
2017-10-23T01:11:04.134Z,3.40
2017-10-23T01:13:32.402Z,3.00
2017-10-23T01:16:01.439Z,3.43
2017-10-23T01:18:29.783Z,3.57
2017-10-23T01:20:58.834Z,3.63
2017-10-23T01:23:28.462Z,3.57
2017-10-23T01:25:56.654Z,3.20
2017-10-23T01:28:25.689Z,3.40
2017-10-23T01:30:54.733Z,3.87
2017-10-23T01:33:23.092Z,4.03
2017-10-23T01:35:51.370Z,3.40
2017-10-23T01:38:19.647Z,3.67
2017-10-23T01:40:49.139Z,3.80
2017-10-23T01:43:18.178Z,3.90
2017-10-23T01:45:47.282Z,3.33
2017-10-23T01:48:16.375Z,4.03
2017-10-23T01:50:44.648Z,4.10
2017-10-23T01:53:14.061Z,3.50
2017-10-23T01:55:42.404Z,3.37
2017-10-23T01:58:10.684Z,3.40
2017-10-23T02:00:38.957Z,3.57
2017-10-23T02:03:07.282Z,3.03
2017-10-23T02:05:36.322Z,3.30
2017-10-23T02:08:05.368Z,3.87
2017-10-23T02:10:33.687Z,3.83
2017-10-23T02:13:02.358Z,3.97
2017-10-23T02:15:30.639Z,3.17
2017-10-23T02:17:58.970Z,3.73
2017-10-23T02:20:27.247Z,4.20
2017-10-23T02:22:55.527Z,4.00
2017-10-23T02:25:23.842Z,3.13
2017-10-23T02:27:52.123Z,4.23
2017-10-23T02:30:21.172Z,3.10
2017-10-23T02:32:49.527Z,3.43
2017-10-23T02:35:17.803Z,3.90
2017-10-23T02:37:46.097Z,3.70
2017-10-23T02:40:14.420Z,3.40
2017-10-23T02:42:42.702Z,4.60
2017-10-23T02:45:10.975Z,4.20
2017-10-23T02:47:39.294Z,2.90
2017-10-23T02:50:08.339Z,3.43
2017-10-23T02:52:36.637Z,3.60
2017-10-23T02:55:05.002Z,3.97
2017-10-23T02:57:34.406Z,4.00
2017-10-23T03:00:03.083Z,4.80
2017-10-23T03:02:31.408Z,3.60
2017-10-23T03:05:00.823Z,3.57
2017-10-23T03:07:29.098Z,4.40
2017-10-23T03:09:57.464Z,4.10
2017-10-23T03:12:25.739Z,3.37
2017-10-23T03:14:54.016Z,3.70
2017-10-23T03:17:22.346Z,3.33
2017-10-23T03:19:51.767Z,3.73
2017-10-23T03:22:20.043Z,4.60
2017-10-23T03:24:48.361Z,2.93
2017-10-23T03:27:16.631Z,3.80
2017-10-23T03:29:46.258Z,3.37
2017-10-23T03:32:15.223Z,3.83
2017-10-23T03:34:43.488Z,2.90
2017-10-23T03:37:12.524Z,3.30
2017-10-23T03:39:42.355Z,3.33
2017-10-23T03:42:10.630Z,3.30
2017-10-23T03:44:40.258Z,2.87
2017-10-23T03:47:08.850Z,4.17
2017-10-23T03:49:37.211Z,3.13
2017-10-23T03:52:05.491Z,3.00
2017-10-23T03:54:33.810Z,3.63
2017-10-23T03:57:02.096Z,3.20
2017-10-23T03:59:30.369Z,3.20
2017-10-23T04:01:58.694Z,4.10
2017-10-23T04:04:28.110Z,2.37
2017-10-23T04:06:56.381Z,3.43
2017-10-23T04:09:26.065Z,4.03
2017-10-23T04:11:54.635Z,3.00
2017-10-23T04:14:23.674Z,3.80
2017-10-23T04:16:52.396Z,4.80
2017-10-23T04:19:20.673Z,3.37
2017-10-23T04:21:50.307Z,4.10
2017-10-23T04:24:19.298Z,3.17
2017-10-23T04:26:48.709Z,3.17
2017-10-23T04:29:16.984Z,3.27
2017-10-23T04:31:45.314Z,3.17
2017-10-23T04:34:13.607Z,2.77
2017-10-23T04:36:41.883Z,3.50
2017-10-23T04:39:10.615Z,2.80
2017-10-23T04:41:39.662Z,3.50
2017-10-23T04:44:07.942Z,3.60
2017-10-23T04:46:36.287Z,3.30
2017-10-23T04:49:05.926Z,2.70
2017-10-23T04:51:34.119Z,2.93
2017-10-23T04:54:02.835Z,3.10
2017-10-23T04:56:31.879Z,2.40
2017-10-23T04:59:00.159Z,3.77
2017-10-23T05:01:29.251Z,3.57
2017-10-23T05:03:57.527Z,3.40
2017-10-23T05:06:25.815Z,3.03
2017-10-23T05:08:55.509Z,5.57
2017-10-23T05:11:25.178Z,3.10
2017-10-23T05:13:53.464Z,4.03
2017-10-23T05:16:21.812Z,3.40
2017-10-23T05:18:50.100Z,3.53
2017-10-23T05:21:19.144Z,3.57
2017-10-23T05:23:47.458Z,4.33
2017-10-23T05:26:15.740Z,2.73
2017-10-23T05:28:44.027Z,2.90
2017-10-23T05:31:12.356Z,2.60
2017-10-23T05:33:40.631Z,3.20
2017-10-23T05:36:08.911Z,4.43
2017-10-23T05:38:38.003Z,3.00
2017-10-23T05:41:07.799Z,3.80
2017-10-23T05:43:35.950Z,3.27
2017-10-23T05:46:05.633Z,4.63
2017-10-23T05:48:34.926Z,4.57
2017-10-23T05:51:03.207Z,2.87
2017-10-23T05:53:32.341Z,3.17
2017-10-23T05:56:00.626Z,3.57
2017-10-23T05:58:29.699Z,3.50
2017-10-23T06:00:58.046Z,3.80
2017-10-23T06:03:27.094Z,4.10
2017-10-23T06:05:55.380Z,3.07
2017-10-23T06:08:23.707Z,3.90
2017-10-23T06:10:51.983Z,4.00
2017-10-23T06:13:21.618Z,3.70
2017-10-23T06:15:50.228Z,3.73
2017-10-23T06:18:20.233Z,4.00
2017-10-23T06:20:49.766Z,3.67
2017-10-23T06:23:17.983Z,3.27
2017-10-23T06:25:47.907Z,3.10
2017-10-23T06:28:16.188Z,3.53
2017-10-23T06:30:44.532Z,3.37
2017-10-23T06:33:15.099Z,2.97
2017-10-23T06:35:44.421Z,3.27
2017-10-23T06:38:15.040Z,3.40
2017-10-23T06:40:43.316Z,2.97
2017-10-23T06:43:11.624Z,2.80
2017-10-23T06:45:39.932Z,3.07
2017-10-23T06:48:08.219Z,3.20
2017-10-23T06:50:36.947Z,2.80
2017-10-23T06:53:05.984Z,3.30
2017-10-23T06:55:34.268Z,3.90
2017-10-23T06:58:02.603Z,3.80
2017-10-23T07:00:31.280Z,3.60
2017-10-23T07:02:59.558Z,3.23
2017-10-23T07:05:28.271Z,3.00
2017-10-23T07:07:57.683Z,3.17
2017-10-23T07:10:26.368Z,3.20
2017-10-23T07:12:54.764Z,3.40
2017-10-23T07:15:23.035Z,3.80
2017-10-23T07:17:51.311Z,3.53
2017-10-23T07:20:19.639Z,3.97
2017-10-23T07:22:48.678Z,3.70
2017-10-23T07:25:16.956Z,3.47
2017-10-23T07:27:45.266Z,3.27
2017-10-23T07:30:13.547Z,3.57
2017-10-23T07:32:41.822Z,3.97
2017-10-23T07:35:11.658Z,3.13
2017-10-23T07:37:41.070Z,2.90
2017-10-23T07:40:09.348Z,3.83
2017-10-23T07:42:37.670Z,2.70
2017-10-23T07:45:05.946Z,3.73
2017-10-23T07:47:35.574Z,3.80
2017-10-23T07:50:03.803Z,4.90
2017-10-23T07:52:32.074Z,3.33
2017-10-23T07:55:00.355Z,4.10
2017-10-23T07:57:28.698Z,3.40
2017-10-23T07:59:56.970Z,3.37
2017-10-23T08:02:26.412Z,3.17
2017-10-23T08:04:54.744Z,3.87
2017-10-23T08:07:23.027Z,3.70
2017-10-23T08:09:51.303Z,3.67
2017-10-23T08:12:19.641Z,3.33
2017-10-23T08:14:47.919Z,2.90
2017-10-23T08:17:16.203Z,4.00
2017-10-23T08:19:44.926Z,3.47
2017-10-23T08:22:13.203Z,3.90
2017-10-23T08:24:41.494Z,3.77
2017-10-23T08:27:10.579Z,3.90
2017-10-23T08:29:40.227Z,2.80
2017-10-23T08:32:08.384Z,3.43
2017-10-23T08:34:37.851Z,3.73
2017-10-23T08:37:06.516Z,3.30
2017-10-23T08:39:34.799Z,2.97
2017-10-23T08:42:03.127Z,3.07
2017-10-23T08:44:31.408Z,4.07
2017-10-23T08:47:00.461Z,3.80
2017-10-23T08:49:29.541Z,3.60
2017-10-23T08:51:59.170Z,3.27
2017-10-23T08:54:27.321Z,3.27
2017-10-23T08:56:55.639Z,3.33
2017-10-23T08:59:23.915Z,3.10
2017-10-23T09:01:52.191Z,3.20
2017-10-23T09:04:20.907Z,3.10
2017-10-23T09:06:49.186Z,3.07
2017-10-23T09:09:18.231Z,3.33
2017-10-23T09:11:47.308Z,4.13
2017-10-23T09:14:15.586Z,3.47
2017-10-23T09:16:44.255Z,2.73
2017-10-23T09:19:12.574Z,3.97
2017-10-23T09:21:40.863Z,3.43
2017-10-23T09:24:09.904Z,3.03
2017-10-23T09:26:38.229Z,3.53
2017-10-23T09:29:06.508Z,3.53
2017-10-23T09:31:34.791Z,3.90
2017-10-23T09:34:03.139Z,3.37
2017-10-23T09:36:31.415Z,4.10
2017-10-23T09:38:59.691Z,3.87
2017-10-23T09:41:28.777Z,4.10
2017-10-23T09:43:57.055Z,3.47
2017-10-23T09:46:25.342Z,3.60
2017-10-23T09:48:54.428Z,3.27
2017-10-23T09:51:23.099Z,4.40
2017-10-23T09:53:51.372Z,3.53
2017-10-23T09:56:19.683Z,4.33
2017-10-23T09:58:47.954Z,4.00
2017-10-23T10:01:16.235Z,4.17
2017-10-23T10:03:45.704Z,3.70
2017-10-23T10:09:15.343Z,3.83
2017-10-23T10:11:44.390Z,3.47
2017-10-23T10:14:12.662Z,3.63
2017-10-23T10:16:42.375Z,4.30
2017-10-23T10:19:10.535Z,4.40
2017-10-23T10:21:39.584Z,4.70
2017-10-23T10:24:07.902Z,4.50
2017-10-23T10:26:36.952Z,4.20
2017-10-23T10:29:05.999Z,4.87
2017-10-23T10:31:35.093Z,3.40
2017-10-23T10:34:04.511Z,5.37
2017-10-23T10:36:33.191Z,4.83
2017-10-23T10:39:01.538Z,5.10
2017-10-23T10:41:31.324Z,4.40
2017-10-23T10:43:59.607Z,4.87
2017-10-23T10:46:27.943Z,4.50
2017-10-23T10:48:56.211Z,4.30
2017-10-23T10:51:24.498Z,4.80
2017-10-23T10:53:52.851Z,4.70
2017-10-23T10:56:21.138Z,4.70
2017-10-23T10:58:49.417Z,5.97
2017-10-23T11:01:19.260Z,5.50
2017-10-23T11:03:47.547Z,5.17
2017-10-23T11:06:15.831Z,5.20
2017-10-23T11:08:44.547Z,4.33
2017-10-23T11:11:14.179Z,6.50
2017-10-23T11:13:42.334Z,5.40
2017-10-23T11:16:11.576Z,5.47
2017-10-23T11:18:40.987Z,4.67
2017-10-23T11:21:09.279Z,6.57
2017-10-23T11:23:37.608Z,4.97
2017-10-23T11:26:05.879Z,5.77
2017-10-23T11:28:34.232Z,6.07
2017-10-23T11:31:03.692Z,5.47
2017-10-23T11:33:31.966Z,5.13
2017-10-23T11:36:00.646Z,5.13
2017-10-23T11:38:28.971Z,5.60
2017-10-23T11:40:58.756Z,4.70
2017-10-23T11:43:27.431Z,6.47
2017-10-23T11:45:56.529Z,5.43
2017-10-23T11:48:25.207Z,5.30
2017-10-23T11:50:53.485Z,6.87
2017-10-23T11:53:22.587Z,5.57
2017-10-23T11:55:50.875Z,5.87
2017-10-23T11:58:20.503Z,5.10
2017-10-23T12:00:49.096Z,5.80
2017-10-23T12:03:17.368Z,6.00
2017-10-23T12:05:45.648Z,6.53
2017-10-23T12:08:13.992Z,7.23
2017-10-23T12:10:42.277Z,5.33
2017-10-23T12:13:10.546Z,5.30
2017-10-23T12:15:38.861Z,5.27
2017-10-23T12:18:08.276Z,6.77
2017-10-23T12:20:36.556Z,6.40
2017-10-23T12:23:06.239Z,7.30
2017-10-23T12:25:34.806Z,6.97
2017-10-23T12:28:04.431Z,7.37
2017-10-23T12:30:32.627Z,6.87
2017-10-23T12:33:01.673Z,7.50
2017-10-23T12:35:30.714Z,7.00
2017-10-23T12:37:59.071Z,8.60
2017-10-23T12:40:27.353Z,7.03
2017-10-23T12:42:55.630Z,7.90
2017-10-23T12:45:25.107Z,7.27
2017-10-23T12:47:53.375Z,7.30
2017-10-23T12:50:21.651Z,7.47
2017-10-23T12:52:49.986Z,7.20
2017-10-23T12:55:18.264Z,7.20
2017-10-23T12:57:46.544Z,8.37
2017-10-23T13:00:16.395Z,7.93
2017-10-23T13:02:44.671Z,6.97
2017-10-23T13:05:13.712Z,5.50
2017-10-23T13:07:42.059Z,6.93
2017-10-23T13:10:11.694Z,6.80
2017-10-23T13:12:40.251Z,5.53
2017-10-23T13:15:08.577Z,7.90
2017-10-23T13:17:36.855Z,8.03
2017-10-23T13:20:05.141Z,6.40
2017-10-23T13:22:34.906Z,6.50
2017-10-23T13:25:03.215Z,6.40
2017-10-23T13:27:31.490Z,5.97
2017-10-23T13:29:59.814Z,6.40
2017-10-23T13:32:29.239Z,6.87
2017-10-23T13:34:57.916Z,6.77
2017-10-23T13:37:26.831Z,7.20
2017-10-23T13:39:55.886Z,5.87
2017-10-23T13:42:24.179Z,5.47
2017-10-23T13:44:52.524Z,6.53
2017-10-23T13:47:20.803Z,7.40
2017-10-23T13:49:49.086Z,6.97
2017-10-23T13:52:18.199Z,6.00
2017-10-23T13:54:46.484Z,6.40
2017-10-23T13:57:15.531Z,6.80
2017-10-23T13:59:44.247Z,6.00
2017-10-23T14:02:12.526Z,6.90
2017-10-23T14:04:42.163Z,5.10
2017-10-23T14:07:10.762Z,6.37
2017-10-23T14:09:39.800Z,6.50
2017-10-23T14:12:08.851Z,6.97
2017-10-23T14:14:37.178Z,6.70
2017-10-23T14:17:05.462Z,13.20
2017-10-23T14:19:33.748Z,7.17
2017-10-23T14:22:02.083Z,6.63
2017-10-23T14:24:30.359Z,5.63
2017-10-23T14:26:58.649Z,6.37
2017-10-23T14:31:56.764Z,6.07
2017-10-23T14:34:25.798Z,5.50
2017-10-23T14:36:54.130Z,5.10
2017-10-23T14:39:22.419Z,5.07
2017-10-23T14:41:50.712Z,4.50
2017-10-23T14:44:19.050Z,5.33
2017-10-23T14:46:48.466Z,5.00
2017-10-23T14:49:16.753Z,3.80
2017-10-23T14:51:45.099Z,4.23
2017-10-23T14:54:13.375Z,4.80
2017-10-23T14:56:43.535Z,4.03
2017-10-23T14:59:11.855Z,5.00
2017-10-23T15:01:41.129Z,5.00
2017-10-23T15:04:09.815Z,5.80
2017-10-23T15:06:38.128Z,5.53
2017-10-23T15:09:06.406Z,4.57
2017-10-23T15:11:35.453Z,5.07
2017-10-23T15:14:03.767Z,5.07
2017-10-23T15:16:32.051Z,5.87
2017-10-23T15:19:00.326Z,5.60
2017-10-23T15:21:29.422Z,6.60
2017-10-23T15:23:58.104Z,4.87
2017-10-23T15:26:26.370Z,5.40
2017-10-23T15:28:56.055Z,5.60
2017-10-23T15:31:25.350Z,5.40
2017-10-23T15:33:53.630Z,5.33
2017-10-23T15:36:22.742Z,4.17
2017-10-23T15:38:52.368Z,4.87
2017-10-23T15:41:22.054Z,4.23
2017-10-23T15:43:51.496Z,4.33
2017-10-23T15:46:19.766Z,5.13
2017-10-23T15:48:48.078Z,4.50
2017-10-23T15:51:16.353Z,4.60
2017-10-23T15:53:45.407Z,4.67
2017-10-23T15:56:13.734Z,5.57
2017-10-23T15:58:42.014Z,5.50
2017-10-23T16:01:11.795Z,5.80
2017-10-23T16:03:40.118Z,6.43
2017-10-23T16:06:09.742Z,5.80
2017-10-23T16:08:38.287Z,5.20
2017-10-23T16:11:06.642Z,5.50
2017-10-23T16:13:34.950Z,5.97
2017-10-23T16:16:03.222Z,5.70
2017-10-23T16:18:31.546Z,5.40
2017-10-23T16:21:00.959Z,5.70
2017-10-23T16:23:29.230Z,6.97
2017-10-23T16:25:57.559Z,5.33
2017-10-23T16:28:25.830Z,6.37
2017-10-23T16:30:55.626Z,7.13
2017-10-23T16:33:24.853Z,6.03
2017-10-23T16:35:54.292Z,5.53
2017-10-23T16:38:23.335Z,6.07
2017-10-23T16:40:51.649Z,5.30
2017-10-23T16:43:19.923Z,5.77
2017-10-23T16:45:48.202Z,4.97
2017-10-23T16:48:18.200Z,6.50
2017-10-23T16:50:46.475Z,5.10
2017-10-23T16:53:14.756Z,5.13
2017-10-23T16:55:44.198Z,4.83
2017-10-23T16:58:13.239Z,6.33
2017-10-23T17:00:41.552Z,5.70
2017-10-23T17:03:10.652Z,6.63
2017-10-23T17:05:38.927Z,5.53
2017-10-23T17:08:07.972Z,6.10
2017-10-23T17:10:37.650Z,6.60
2017-10-23T17:13:06.215Z,6.30
2017-10-23T17:15:35.251Z,6.00
2017-10-23T17:18:04.517Z,7.13
2017-10-23T17:20:33.191Z,6.20
2017-10-23T17:23:01.472Z,6.10
2017-10-23T17:25:29.800Z,6.90
2017-10-23T17:27:58.083Z,8.00
2017-10-23T17:30:27.882Z,5.73
2017-10-23T17:32:56.216Z,7.20
2017-10-23T17:35:24.506Z,6.33
2017-10-23T17:37:52.784Z,6.00
2017-10-23T17:40:21.087Z,7.00
2017-10-23T17:42:49.367Z,5.67
2017-10-23T17:45:17.639Z,6.30
2017-10-23T17:47:47.087Z,6.30
2017-10-23T17:50:15.359Z,6.07
2017-10-23T17:52:43.634Z,5.90
2017-10-23T17:55:12.727Z,6.33
2017-10-23T17:57:41.018Z,6.20
2017-10-23T18:00:09.302Z,6.03
2017-10-23T18:02:37.618Z,6.40
2017-10-23T18:05:07.408Z,6.57
2017-10-23T18:07:37.066Z,7.10
2017-10-23T18:10:05.642Z,6.67
2017-10-23T18:12:35.276Z,6.20
2017-10-23T18:15:04.994Z,6.03
2017-10-23T18:17:34.778Z,6.50
2017-10-23T18:20:03.059Z,6.50
2017-10-23T18:22:32.142Z,7.20
2017-10-23T18:25:00.425Z,7.30
2017-10-23T18:27:28.710Z,7.47
2017-10-23T18:29:57.040Z,7.20
2017-10-23T18:32:25.314Z,7.20
2017-10-23T18:34:53.601Z,7.70
2017-10-23T18:37:21.932Z,7.37
2017-10-23T18:39:50.218Z,7.73
2017-10-23T18:42:20.010Z,7.73
2017-10-23T18:44:48.335Z,8.90
2017-10-23T18:47:17.378Z,7.27
2017-10-23T18:49:45.649Z,7.47
2017-10-23T18:52:13.971Z,7.10
2017-10-23T18:54:43.755Z,6.90
2017-10-23T18:57:12.039Z,7.27
2017-10-23T18:59:40.364Z,6.77
2017-10-23T19:02:08.644Z,5.83
2017-10-23T19:04:36.918Z,7.63
2017-10-23T19:07:05.242Z,7.57
2017-10-23T19:09:34.671Z,7.70
2017-10-23T19:12:02.950Z,8.60
2017-10-23T19:14:31.277Z,7.30
2017-10-23T19:16:59.552Z,6.97
2017-10-23T19:19:28.596Z,7.33
2017-10-23T19:21:56.947Z,7.47
2017-10-23T19:24:26.575Z,9.87
2017-10-23T19:26:55.118Z,7.60
2017-10-23T19:29:24.794Z,8.57
2017-10-23T19:31:53.721Z,7.07
2017-10-23T19:34:21.995Z,8.70
2017-10-23T19:36:50.327Z,8.07
2017-10-23T19:39:19.381Z,8.13
2017-10-23T19:41:48.440Z,8.00
2017-10-23T19:44:16.766Z,9.30
2017-10-23T19:46:46.194Z,11.30
2017-10-23T19:49:14.470Z,9.60
2017-10-23T19:51:42.794Z,8.60
2017-10-23T19:54:11.071Z,9.23
2017-10-23T19:56:40.863Z,9.90
2017-10-23T19:59:09.175Z,9.30
2017-10-23T20:01:38.590Z,8.97
2017-10-23T20:04:08.218Z,9.70
2017-10-23T20:06:36.815Z,9.97
2017-10-23T20:09:05.112Z,10.70
2017-10-23T20:11:33.396Z,10.93
2017-10-23T20:14:01.717Z,10.07
2017-10-23T20:16:31.140Z,10.23
2017-10-23T20:18:59.823Z,9.77
2017-10-23T20:21:28.171Z,9.13
2017-10-23T20:23:56.453Z,12.17
2017-10-23T20:26:24.735Z,10.37
2017-10-23T20:28:53.980Z,11.20
2017-10-23T20:31:22.260Z,11.57
2017-10-23T20:33:50.549Z,13.47
2017-10-23T20:36:18.914Z,12.73
2017-10-23T20:38:47.199Z,12.93
2017-10-23T20:41:15.478Z,13.27
2017-10-23T20:43:44.579Z,12.47
2017-10-23T20:46:12.866Z,13.20
2017-10-23T20:48:41.913Z,12.77
2017-10-23T20:51:11.602Z,14.50
2017-10-23T20:53:40.906Z,13.23
2017-10-23T20:56:09.193Z,13.27
2017-10-23T20:58:37.539Z,15.03
2017-10-23T21:01:07.327Z,14.03
2017-10-23T21:03:35.606Z,13.13
2017-10-23T21:06:03.933Z,12.50
2017-10-23T21:08:32.227Z,15.30
2017-10-23T21:11:00.518Z,13.80
2017-10-23T21:13:28.871Z,14.57
2017-10-23T21:15:58.288Z,13.53
2017-10-23T21:18:26.566Z,12.50
2017-10-23T21:20:54.965Z,14.23
2017-10-23T21:23:23.258Z,12.10
2017-10-23T21:25:51.535Z,13.13
2017-10-23T21:28:20.627Z,10.80
2017-10-23T21:30:48.915Z,11.73
2017-10-23T21:33:17.199Z,10.27
2017-10-23T21:35:47.026Z,11.40
2017-10-23T21:38:15.307Z,12.10
2017-10-23T21:40:43.599Z,10.50
2017-10-23T21:43:13.436Z,12.27
2017-10-23T21:45:43.222Z,11.93
2017-10-23T21:48:11.506Z,10.57
2017-10-23T21:50:39.838Z,12.77
2017-10-23T21:53:08.119Z,12.10
2017-10-23T21:55:36.413Z,13.30
2017-10-23T21:58:04.735Z,11.33
2017-10-23T22:00:33.027Z,12.17
2017-10-23T22:03:02.087Z,12.03
2017-10-23T22:05:31.779Z,12.00
2017-10-23T22:08:00.334Z,13.50
2017-10-23T22:10:29.764Z,12.17
2017-10-23T22:12:58.488Z,11.63
2017-10-23T22:15:27.911Z,11.00
2017-10-23T22:17:56.590Z,9.00
2017-10-23T22:20:24.926Z,9.47
2017-10-23T22:22:53.975Z,10.27
2017-10-23T22:25:23.031Z,10.13
2017-10-23T22:27:51.383Z,9.80
2017-10-23T22:30:20.427Z,10.27
2017-10-23T22:32:49.480Z,10.80
2017-10-23T22:35:17.815Z,9.40
2017-10-23T22:37:46.859Z,9.67
2017-10-23T22:40:16.270Z,9.47
2017-10-23T22:42:45.950Z,10.27
2017-10-23T22:45:14.885Z,9.57
2017-10-23T22:47:44.514Z,9.53
2017-10-23T22:50:14.230Z,9.10
2017-10-23T22:52:42.511Z,9.17
2017-10-23T22:55:10.782Z,8.57
2017-10-23T22:57:39.871Z,8.10
2017-10-23T23:00:08.551Z,10.27
2017-10-23T23:02:36.830Z,7.77
2017-10-23T23:05:05.942Z,8.87
2017-10-23T23:07:34.988Z,7.50
2017-10-23T23:10:03.268Z,7.23
2017-10-23T23:12:32.357Z,7.80
2017-10-23T23:15:01.404Z,7.47
2017-10-23T23:17:30.456Z,7.67
2017-10-23T23:19:58.786Z,6.07
2017-10-23T23:22:28.195Z,6.50
2017-10-23T23:24:56.477Z,6.33
2017-10-23T23:27:24.802Z,5.80
2017-10-23T23:29:53.079Z,6.40
2017-10-23T23:32:22.119Z,5.40
2017-10-23T23:34:50.439Z,5.07
2017-10-23T23:37:18.723Z,5.60
2017-10-23T23:39:47.003Z,5.80
2017-10-23T23:42:16.658Z,5.77
2017-10-23T23:44:44.810Z,5.03
2017-10-23T23:47:13.090Z,5.77
2017-10-23T23:49:41.406Z,4.10
2017-10-23T23:52:09.683Z,4.03
2017-10-23T23:54:37.959Z,4.40
2017-10-23T23:57:06.274Z,4.87
2017-10-23T23:59:35.898Z,5.87
